KR-0421 weather

Korea Telecommunications (KT) Heliport
Busan, Busan Gwang'yeogsi, South Korea

Public forecast

Using degrees Celsius for public forecast. Weather courtesy of forecast.io.

METAR (pilot weather report)

Closest report is Gimhae International Airport, 6.6 nm (12.2 km) WNW. Retrieved 2019/09/17 03:00 UTC (56 minutes ago):

RKPK 170300Z 02016KT 9999 FEW040 27/13 Q1014

TAF (pilot weather forecast)

Forecast is more than 12 hours old.

Closest forecast is Gimhae International Airport, 6.6 nm (12.2 km) WNW. Retrieved 2019/09/16 00:00 UTC (1 day ago):

TAF RKPK 162300Z 1700/1806 03006KT 9999 SCT030 SCT200 TX28/1706Z TN17/1720Z BECMG 1702/1703 03010KT BECMG 1709/1710 03006KT